createdAt,value
2022-12-12T00:01:24.962Z,46.13
2022-12-12T00:06:26.585Z,46.32
2022-12-12T00:11:28.074Z,46.11
2022-12-12T00:16:29.593Z,45.10
2022-12-12T00:21:31.064Z,45.40
2022-12-12T00:26:33.743Z,44.86
2022-12-12T00:31:35.288Z,46.15
2022-12-12T00:36:36.841Z,46.05
2022-12-12T00:41:38.291Z,45.39
2022-12-12T00:46:39.813Z,45.51
2022-12-12T00:51:41.368Z,43.76
2022-12-12T00:56:42.829Z,45.60
2022-12-12T01:01:44.624Z,44.97
2022-12-12T01:06:46.133Z,46.43
2022-12-12T01:11:47.587Z,45.92
2022-12-12T01:16:49.057Z,46.18
2022-12-12T01:21:50.508Z,46.72
2022-12-12T01:26:51.975Z,45.71
2022-12-12T01:31:53.440Z,44.78
2022-12-12T01:36:54.909Z,44.80
2022-12-12T01:41:56.414Z,43.84
2022-12-12T01:46:57.882Z,44.46
2022-12-12T01:52:02.518Z,44.19
2022-12-12T01:57:06.198Z,44.04
2022-12-12T02:02:07.788Z,43.80
2022-12-12T02:07:09.299Z,44.14
2022-12-12T02:12:14.176Z,44.51
2022-12-12T02:17:37.079Z,43.52
2022-12-12T02:22:56.383Z,43.72
2022-12-12T02:28:28.837Z,44.12
2022-12-12T02:34:03.819Z,43.35
2022-12-12T02:39:05.099Z,45.02
2022-12-12T02:44:26.196Z,43.62
2022-12-12T02:49:34.137Z,44.00
2022-12-12T02:54:35.615Z,44.44
2022-12-12T02:59:38.083Z,45.32
2022-12-12T03:05:23.449Z,45.40
2022-12-12T03:10:28.209Z,45.98
2022-12-12T03:15:44.605Z,46.59
2022-12-12T03:20:53.539Z,46.99
2022-12-12T03:26:00.244Z,47.12
2022-12-12T03:31:04.108Z,46.33
2022-12-12T03:36:05.410Z,46.43
2022-12-12T03:41:09.180Z,45.66
2022-12-12T03:46:21.911Z,46.64
2022-12-12T03:51:26.387Z,46.99
2022-12-12T03:56:32.453Z,47.94
2022-12-12T04:01:39.738Z,47.93
2022-12-12T04:07:07.287Z,46.98
2022-12-12T04:12:48.660Z,46.31
2022-12-12T04:18:14.826Z,46.63
2022-12-12T04:23:34.174Z,45.71
2022-12-12T04:28:35.640Z,45.49
2022-12-12T04:33:45.400Z,46.73
2022-12-12T04:38:46.856Z,46.44
2022-12-12T04:43:49.046Z,46.96
2022-12-12T04:48:58.165Z,45.77
2022-12-12T04:54:13.086Z,46.84
2022-12-12T04:59:14.587Z,48.18
2022-12-12T05:04:48.575Z,46.48
2022-12-12T05:09:50.073Z,46.41
2022-12-12T05:14:51.537Z,46.15
2022-12-12T05:19:53.014Z,44.56
2022-12-12T05:24:54.479Z,44.40
2022-12-12T05:29:55.928Z,44.46
2022-12-12T05:34:57.399Z,43.66
2022-12-12T05:39:58.948Z,44.19
2022-12-12T05:45:00.701Z,44.23
2022-12-12T05:50:02.156Z,44.66
2022-12-12T05:55:03.920Z,45.40
2022-12-12T06:00:05.867Z,44.29
2022-12-12T06:05:07.645Z,43.62
2022-12-12T06:10:09.264Z,43.83
2022-12-12T06:15:11.210Z,44.29
2022-12-12T06:20:13.143Z,43.45
2022-12-12T06:25:14.864Z,44.38
2022-12-12T06:30:16.506Z,44.10
2022-12-12T06:35:18.261Z,43.85
2022-12-12T06:40:19.732Z,42.68
2022-12-12T06:45:21.518Z,42.98
2022-12-12T06:50:23.974Z,42.74
2022-12-12T06:55:25.648Z,42.85
2022-12-12T07:00:27.094Z,41.52
2022-12-12T07:05:28.552Z,42.27
2022-12-12T07:10:30.463Z,41.98
2022-12-12T07:15:32.006Z,41.97
2022-12-12T07:20:33.488Z,41.76
2022-12-12T07:25:37.897Z,41.49
2022-12-12T07:30:40.724Z,43.04
2022-12-12T07:35:42.270Z,42.81
2022-12-12T07:40:43.734Z,42.65
2022-12-12T07:45:45.852Z,41.80
2022-12-12T07:50:47.317Z,42.67
2022-12-12T07:55:48.804Z,43.02
2022-12-12T08:00:50.255Z,42.77
2022-12-12T08:05:51.721Z,42.14
2022-12-12T08:10:53.184Z,42.54
2022-12-12T08:15:54.677Z,43.61
2022-12-12T08:20:56.247Z,42.90
2022-12-12T08:25:57.702Z,42.71
2022-12-12T08:30:59.278Z,42.78
2022-12-12T08:36:00.800Z,42.74
2022-12-12T08:41:02.544Z,42.81
2022-12-12T08:46:04.142Z,42.45
2022-12-12T08:51:05.784Z,43.01
2022-12-12T08:56:07.443Z,43.24
2022-12-12T09:01:19.447Z,42.86
2022-12-12T09:06:21.298Z,42.27
2022-12-12T09:11:23.263Z,42.36
2022-12-12T09:16:26.464Z,42.07
2022-12-12T09:21:28.033Z,42.15
2022-12-12T09:26:29.495Z,41.68
2022-12-12T09:31:31.014Z,41.95
2022-12-12T09:36:32.495Z,42.51
2022-12-12T09:41:34.004Z,42.53
2022-12-12T09:46:44.190Z,43.20
2022-12-12T09:51:47.288Z,43.00
2022-12-12T09:57:09.756Z,42.64
2022-12-12T10:02:38.811Z,42.85
2022-12-12T10:07:53.392Z,42.49
2022-12-12T10:12:54.907Z,41.34
2022-12-12T10:17:57.122Z,42.23
2022-12-12T10:23:04.594Z,42.27
2022-12-12T10:28:11.088Z,40.82
2022-12-12T10:33:37.100Z,41.16
2022-12-12T10:38:53.923Z,42.34
2022-12-12T10:44:15.257Z,41.24
2022-12-12T10:49:19.216Z,40.80
2022-12-12T10:54:22.266Z,41.68
2022-12-12T10:59:23.713Z,41.38
2022-12-12T11:04:25.726Z,42.01
2022-12-12T11:09:28.239Z,41.14
2022-12-12T11:14:34.032Z,41.98
2022-12-12T11:19:39.193Z,41.09
2022-12-12T11:24:43.982Z,41.05
2022-12-12T11:30:28.360Z,40.79
2022-12-12T11:35:45.528Z,39.97
2022-12-12T11:41:06.182Z,39.47
2022-12-12T11:46:14.199Z,40.88
2022-12-12T11:51:39.490Z,40.14
2022-12-12T11:56:45.020Z,40.52
2022-12-12T12:02:11.016Z,40.41
2022-12-12T12:07:22.471Z,40.32
2022-12-12T12:12:25.320Z,40.44
2022-12-12T12:17:57.917Z,40.85
2022-12-12T12:23:14.027Z,40.67
2022-12-12T12:28:27.469Z,40.86
2022-12-12T12:33:47.800Z,39.67
2022-12-12T12:39:07.866Z,40.07
2022-12-12T12:44:55.037Z,39.97
2022-12-12T12:50:03.412Z,39.33
2022-12-12T12:55:05.154Z,39.10
2022-12-12T13:00:15.957Z,39.36
2022-12-12T13:05:31.256Z,39.55
2022-12-12T13:10:32.747Z,39.12
2022-12-12T13:15:40.622Z,39.29
2022-12-12T13:20:44.152Z,39.06
2022-12-12T13:25:58.916Z,39.11
2022-12-12T13:31:18.976Z,40.73
2022-12-12T13:36:29.922Z,39.17
2022-12-12T13:41:57.464Z,39.54
2022-12-12T13:46:58.911Z,39.84
2022-12-12T13:52:21.920Z,39.14
2022-12-12T13:57:25.515Z,39.26
2022-12-12T14:02:37.672Z,38.72
2022-12-12T14:07:39.685Z,37.89
2022-12-12T14:12:41.154Z,38.88
2022-12-12T14:17:43.373Z,38.76
2022-12-12T14:22:44.693Z,39.35
2022-12-12T14:27:52.011Z,38.61
2022-12-12T14:33:06.227Z,39.25
2022-12-12T14:38:38.355Z,39.14
2022-12-12T14:43:42.150Z,39.29
2022-12-12T14:48:46.487Z,39.92
2022-12-12T14:53:51.646Z,39.68
2022-12-12T14:58:55.728Z,39.88
2022-12-12T15:03:57.318Z,39.60
2022-12-12T15:09:19.361Z,39.04
2022-12-12T15:14:27.572Z,39.61
2022-12-12T15:19:35.809Z,38.67
2022-12-12T15:24:38.020Z,39.28
2022-12-12T15:29:39.607Z,39.29
2022-12-12T15:34:42.389Z,39.41
2022-12-12T15:39:44.255Z,39.28
2022-12-12T15:44:46.017Z,39.02
2022-12-12T15:49:47.583Z,40.17
2022-12-12T15:54:59.357Z,39.88
2022-12-12T16:00:02.568Z,39.85
2022-12-12T16:05:08.015Z,40.12
2022-12-12T16:10:15.957Z,39.59
2022-12-12T16:15:18.969Z,39.93
2022-12-12T16:20:21.196Z,39.77
2022-12-12T16:25:28.775Z,39.97
2022-12-12T16:30:30.584Z,39.72
2022-12-12T16:35:32.043Z,40.21
2022-12-12T16:40:33.543Z,40.32
2022-12-12T16:45:35.056Z,40.97
2022-12-12T16:50:36.527Z,40.94
2022-12-12T16:55:40.405Z,41.04
2022-12-12T17:00:42.030Z,40.68
2022-12-12T17:05:44.519Z,40.71
2022-12-12T17:10:46.518Z,40.22
2022-12-12T17:15:47.979Z,40.58
2022-12-12T17:20:49.492Z,40.30
2022-12-12T17:25:54.683Z,41.47
2022-12-12T17:31:00.551Z,40.83
2022-12-12T17:36:05.866Z,41.33
2022-12-12T17:41:10.789Z,42.04
2022-12-12T17:46:16.601Z,40.73
2022-12-12T17:51:19.599Z,41.63
2022-12-12T17:56:22.868Z,42.02
2022-12-12T18:01:31.519Z,42.43
2022-12-12T18:06:33.855Z,41.94
2022-12-12T18:11:35.862Z,41.71
2022-12-12T18:16:37.415Z,41.42
2022-12-12T18:27:03.303Z,41.84
2022-12-12T18:32:05.209Z,41.96
2022-12-12T18:37:06.728Z,41.66
2022-12-12T18:42:08.345Z,41.86
2022-12-12T18:47:09.829Z,41.50
2022-12-12T18:52:11.292Z,41.70
2022-12-12T18:57:12.756Z,41.67
2022-12-12T19:02:14.341Z,42.85
2022-12-12T19:07:15.870Z,42.00
2022-12-12T19:12:17.518Z,41.79
2022-12-12T19:17:25.241Z,42.06
2022-12-12T19:22:57.682Z,42.55
2022-12-12T19:27:49.295Z,41.45
2022-12-12T19:32:50.758Z,42.01
2022-12-12T19:37:52.216Z,42.30
2022-12-12T19:42:53.803Z,42.17
2022-12-12T19:47:55.367Z,41.97
2022-12-12T19:52:57.729Z,41.92
2022-12-12T19:58:00.441Z,41.75
2022-12-12T20:03:01.916Z,42.93
2022-12-12T20:08:03.440Z,42.52
2022-12-12T20:13:04.942Z,43.37
2022-12-12T20:18:06.447Z,43.42
2022-12-12T20:23:08.973Z,44.05
2022-12-12T20:28:10.484Z,44.17
2022-12-12T20:33:11.944Z,44.40
2022-12-12T20:38:13.478Z,44.27
2022-12-12T20:43:14.937Z,44.39
2022-12-12T20:48:16.428Z,45.48
2022-12-12T20:53:17.912Z,46.48
2022-12-12T20:58:19.358Z,46.39
2022-12-12T21:03:20.846Z,45.29
2022-12-12T21:08:22.404Z,45.09
2022-12-12T21:13:23.947Z,45.62
2022-12-12T21:18:25.405Z,45.21
2022-12-12T21:23:26.854Z,47.77
2022-12-12T21:28:28.311Z,48.36
2022-12-12T21:33:29.759Z,48.41
2022-12-12T21:38:31.293Z,48.82
2022-12-12T21:43:32.803Z,47.64
2022-12-12T21:48:34.263Z,48.61
2022-12-12T21:53:36.136Z,47.81
2022-12-12T21:58:38.007Z,47.49
2022-12-12T22:03:39.465Z,48.12
2022-12-12T22:08:40.979Z,47.60
2022-12-12T22:13:42.863Z,47.80
2022-12-12T22:18:47.613Z,48.93
2022-12-12T22:23:53.300Z,48.39
2022-12-12T22:28:57.419Z,48.46
2022-12-12T22:34:03.669Z,48.22
2022-12-12T22:39:06.330Z,49.01
2022-12-12T22:44:07.784Z,49.31
2022-12-12T22:49:09.718Z,50.22
2022-12-12T22:54:11.294Z,49.85
2022-12-12T22:59:13.216Z,50.47
2022-12-12T23:04:14.871Z,50.33
2022-12-12T23:09:18.440Z,50.92
2022-12-12T23:14:21.535Z,51.87
2022-12-12T23:19:25.736Z,51.09
2022-12-12T23:24:27.203Z,50.99
2022-12-12T23:29:28.648Z,51.28
2022-12-12T23:34:30.199Z,51.99
2022-12-12T23:39:31.654Z,52.19
2022-12-12T23:44:33.138Z,53.42
2022-12-12T23:49:34.599Z,52.21
2022-12-12T23:54:36.121Z,51.66
2022-12-12T23:59:37.635Z,51.00
